createdAt,value
2022-11-20T00:00:57.718Z,97989.13
2022-11-20T00:03:25.818Z,97987.97
2022-11-20T00:05:53.893Z,97998.78
2022-11-20T00:08:22.328Z,97993.03
2022-11-20T00:10:50.424Z,97993.78
2022-11-20T00:13:18.534Z,97984.34
2022-11-20T00:15:47.879Z,97982.59
2022-11-20T00:18:16.050Z,97986.06
2022-11-20T00:20:44.017Z,97983.53
2022-11-20T00:23:12.021Z,97978.88
2022-11-20T00:25:39.994Z,97985.81
2022-11-20T00:28:07.933Z,97982.53
2022-11-20T00:30:35.937Z,97981.00
2022-11-20T00:33:05.296Z,97977.66
2022-11-20T00:35:33.270Z,97984.25
2022-11-20T00:38:01.150Z,97979.44
2022-11-20T00:40:29.100Z,97985.91
2022-11-20T00:42:57.017Z,97983.97
2022-11-20T00:45:24.965Z,97977.25
2022-11-20T00:47:52.870Z,97979.50
2022-11-20T00:50:22.250Z,97970.94
2022-11-20T00:52:50.148Z,97970.81
2022-11-20T00:55:18.058Z,97965.53
2022-11-20T00:57:45.956Z,97965.13
2022-11-20T01:00:14.098Z,97949.63
2022-11-20T01:02:42.022Z,97958.94
2022-11-20T01:05:10.220Z,97952.44
2022-11-20T01:07:39.564Z,97958.06
2022-11-20T01:10:08.714Z,97967.31
2022-11-20T01:12:36.595Z,97958.81
2022-11-20T01:15:04.919Z,97958.84
2022-11-20T01:17:33.413Z,97961.47
2022-11-20T01:20:01.447Z,97963.94
2022-11-20T01:22:29.354Z,97950.78
2022-11-20T01:24:58.675Z,97939.63
2022-11-20T01:27:26.731Z,97934.75
2022-11-20T01:29:59.758Z,97935.16
2022-11-20T01:32:29.034Z,97940.41
2022-11-20T01:34:56.927Z,97942.47
2022-11-20T01:37:24.865Z,97943.16
2022-11-20T01:39:52.873Z,97945.94
2022-11-20T01:42:39.541Z,97940.81
2022-11-20T01:45:40.643Z,97940.41
2022-11-20T01:48:08.582Z,97935.38
2022-11-20T01:50:36.910Z,97944.75
2022-11-20T01:53:07.385Z,97952.72
2022-11-20T01:55:38.798Z,97938.66
2022-11-20T01:58:08.718Z,97938.94
2022-11-20T02:00:37.474Z,97942.38
2022-11-20T02:03:10.590Z,97948.97
2022-11-20T02:05:43.890Z,97947.47
2022-11-20T02:08:11.903Z,97949.47
2022-11-20T02:10:40.036Z,97937.13
2022-11-20T02:13:27.869Z,97941.78
2022-11-20T02:15:56.153Z,97946.44
2022-11-20T02:18:25.328Z,97955.47
2022-11-20T02:20:57.832Z,97953.97
2022-11-20T02:23:34.196Z,97965.53
2022-11-20T02:26:05.677Z,97954.91
2022-11-20T02:28:34.327Z,97961.19
2022-11-20T02:31:03.606Z,97962.72
2022-11-20T02:33:31.555Z,97958.25
2022-11-20T02:35:59.476Z,97964.38
2022-11-20T02:38:27.481Z,97961.94
2022-11-20T02:40:55.961Z,97964.97
2022-11-20T02:43:25.618Z,97957.63
2022-11-20T02:45:53.541Z,97957.22
2022-11-20T02:48:22.933Z,97959.16
2022-11-20T02:50:52.551Z,97958.78
2022-11-20T02:53:20.611Z,97961.50
2022-11-20T02:55:48.576Z,97957.31
2022-11-20T02:58:16.529Z,97955.72
2022-11-20T03:00:45.873Z,97944.97
2022-11-20T03:03:13.800Z,97943.00
2022-11-20T03:05:41.779Z,97954.16
2022-11-20T03:08:09.730Z,97950.31
2022-11-20T03:10:37.655Z,97941.53
2022-11-20T03:13:05.597Z,97937.94
2022-11-20T03:15:33.626Z,97944.88
2022-11-20T03:18:02.918Z,97948.00
2022-11-20T03:20:30.850Z,97936.47
2022-11-20T03:22:58.754Z,97940.72
2022-11-20T03:25:26.715Z,97943.06
2022-11-20T03:27:54.644Z,97944.63
2022-11-20T03:30:27.595Z,97939.66
2022-11-20T03:32:58.696Z,97946.28
2022-11-20T03:35:28.026Z,97936.56
2022-11-20T03:37:55.948Z,97934.63
2022-11-20T03:40:23.922Z,97934.25
2022-11-20T03:42:51.840Z,97929.25
2022-11-20T03:45:20.421Z,97932.72
2022-11-20T03:47:48.522Z,97927.72
2022-11-20T03:50:16.686Z,97920.00
2022-11-20T03:52:45.949Z,97927.00
2022-11-20T03:55:13.931Z,97927.00
2022-11-20T03:57:41.918Z,97925.47
2022-11-20T04:00:10.916Z,97932.00
2022-11-20T04:02:38.870Z,97922.78
2022-11-20T04:05:07.697Z,97920.88
2022-11-20T04:07:36.536Z,97925.94
2022-11-20T04:10:06.943Z,97924.75
2022-11-20T04:12:35.600Z,97916.66
2022-11-20T04:15:03.536Z,97921.66
2022-11-20T04:17:31.457Z,97924.72
2022-11-20T04:19:59.398Z,97930.13
2022-11-20T04:22:27.402Z,97912.09
2022-11-20T04:24:55.398Z,97911.00
2022-11-20T04:27:24.735Z,97910.97
2022-11-20T04:29:52.643Z,97910.94
2022-11-20T04:32:20.583Z,97909.38
2022-11-20T04:34:48.536Z,97907.09
2022-11-20T04:37:16.455Z,97902.09
2022-11-20T04:39:44.633Z,97905.50
2022-11-20T04:42:31.132Z,97899.69
2022-11-20T04:45:00.528Z,97904.38
2022-11-20T04:47:28.467Z,97900.88
2022-11-20T04:49:56.517Z,97904.69
2022-11-20T04:52:24.495Z,97897.75
2022-11-20T04:54:53.899Z,97896.22
2022-11-20T04:57:22.032Z,97893.13
2022-11-20T04:59:49.939Z,97891.97
2022-11-20T05:02:19.432Z,97890.75
2022-11-20T05:04:47.411Z,97896.13
2022-11-20T05:07:15.649Z,97896.94
2022-11-20T05:09:43.826Z,97897.28
2022-11-20T05:12:12.119Z,97896.94
2022-11-20T05:14:40.028Z,97898.50
2022-11-20T05:17:08.112Z,97893.81
2022-11-20T05:19:37.482Z,97893.50
2022-11-20T05:22:06.809Z,97897.38
2022-11-20T05:24:34.695Z,97898.16
2022-11-20T05:27:02.599Z,97895.88
2022-11-20T05:29:30.508Z,97888.88
2022-11-20T05:31:58.450Z,97891.63
2022-11-20T05:34:26.430Z,97892.44
2022-11-20T05:36:55.748Z,97886.66
2022-11-20T05:39:24.025Z,97878.91
2022-11-20T05:42:12.672Z,97881.66
2022-11-20T05:44:40.779Z,97881.72
2022-11-20T05:47:08.740Z,97889.06
2022-11-20T05:49:36.638Z,97872.06
2022-11-20T05:52:06.139Z,97880.19
2022-11-20T05:54:34.445Z,97872.44
2022-11-20T05:57:02.434Z,97876.44
2022-11-20T05:59:30.338Z,97877.19
2022-11-20T06:01:58.287Z,97881.75
2022-11-20T06:04:26.444Z,97880.19
2022-11-20T06:06:54.398Z,97875.13
2022-11-20T06:09:23.882Z,97872.44
2022-11-20T06:11:51.979Z,97869.06
2022-11-20T06:14:19.871Z,97863.28
2022-11-20T06:16:47.794Z,97869.84
2022-11-20T06:19:16.103Z,97874.09
2022-11-20T06:21:44.143Z,97880.25
2022-11-20T06:24:12.761Z,97871.31
2022-11-20T06:26:42.065Z,97871.69
2022-11-20T06:29:10.234Z,97872.84
2022-11-20T06:31:38.865Z,97875.91
2022-11-20T06:34:07.846Z,97871.31
2022-11-20T06:36:36.070Z,97867.81
2022-11-20T06:39:04.615Z,97869.28
2022-11-20T06:41:32.513Z,97866.22
2022-11-20T06:44:01.817Z,97866.56
2022-11-20T06:46:29.729Z,97860.75
2022-11-20T06:48:57.934Z,97847.19
2022-11-20T06:51:26.561Z,97856.38
2022-11-20T06:53:55.193Z,97853.00
2022-11-20T06:56:23.122Z,97858.88
2022-11-20T06:58:51.036Z,97855.97
2022-11-20T07:01:20.464Z,97849.63
2022-11-20T07:03:54.260Z,97849.06
2022-11-20T07:06:22.606Z,97854.34
2022-11-20T07:08:52.763Z,97861.56
2022-11-20T07:11:20.713Z,97853.88
2022-11-20T07:13:48.688Z,97851.94
2022-11-20T07:16:17.736Z,97867.31
2022-11-20T07:18:50.495Z,97869.59
2022-11-20T07:21:19.147Z,97865.28
2022-11-20T07:23:48.055Z,97869.31
2022-11-20T07:26:16.896Z,97871.94
2022-11-20T07:28:47.117Z,97870.66
2022-11-20T07:31:19.054Z,97874.59
2022-11-20T07:33:48.666Z,97871.41
2022-11-20T07:36:17.009Z,97876.03
2022-11-20T07:38:44.984Z,97885.06
2022-11-20T07:41:13.057Z,97882.84
2022-11-20T07:43:41.772Z,97881.94
2022-11-20T07:46:09.958Z,97889.09
2022-11-20T07:48:38.019Z,97886.13
2022-11-20T07:51:07.627Z,97887.34
2022-11-20T07:53:35.635Z,97890.31
2022-11-20T07:56:04.473Z,97890.22
2022-11-20T07:58:34.062Z,97889.41
2022-11-20T08:01:05.537Z,97885.13
2022-11-20T08:03:33.602Z,97898.38
2022-11-20T08:06:01.996Z,97894.16
2022-11-20T08:08:33.679Z,97890.66
2022-11-20T08:11:16.005Z,97897.03
2022-11-20T08:14:01.462Z,97892.53
2022-11-20T08:16:29.329Z,97893.72
2022-11-20T08:18:57.383Z,97890.53
2022-11-20T08:21:25.360Z,97892.38
2022-11-20T08:23:54.724Z,97899.38
2022-11-20T08:26:23.835Z,97901.09
2022-11-20T08:28:51.756Z,97888.59
2022-11-20T08:31:19.652Z,97884.91
2022-11-20T08:33:47.527Z,97884.78
2022-11-20T08:36:15.735Z,97886.78
2022-11-20T08:38:43.620Z,97880.69
2022-11-20T08:41:28.729Z,97872.75
2022-11-20T08:43:58.744Z,97871.03
2022-11-20T08:46:28.613Z,97870.88
2022-11-20T08:48:56.510Z,97876.16
2022-11-20T08:51:24.500Z,97871.41
2022-11-20T08:53:52.401Z,97866.22
2022-11-20T08:56:22.831Z,97863.13
2022-11-20T08:59:18.366Z,97862.41
2022-11-20T09:01:40.605Z,97856.03
2022-11-20T09:04:08.687Z,97855.06
2022-11-20T09:06:36.592Z,97851.59
2022-11-20T09:09:06.777Z,97858.47
2022-11-20T09:11:38.623Z,97857.19
2022-11-20T09:14:06.564Z,97844.84
2022-11-20T09:16:34.476Z,97845.50
2022-11-20T09:19:33.572Z,97847.97
2022-11-20T09:21:50.504Z,97855.63
2022-11-20T09:24:18.369Z,97849.25
2022-11-20T09:26:47.634Z,97849.09
2022-11-20T09:29:15.527Z,97856.47
2022-11-20T09:31:43.422Z,97856.16
2022-11-20T09:34:11.302Z,97853.75
2022-11-20T09:36:49.914Z,97856.94
2022-11-20T09:39:21.699Z,97857.09
2022-11-20T09:42:06.444Z,97861.22
2022-11-20T09:44:51.447Z,97862.88
2022-11-20T09:47:29.620Z,97871.31
2022-11-20T09:50:08.491Z,97858.97
2022-11-20T09:52:50.382Z,97853.75
2022-11-20T09:55:19.246Z,97856.22
2022-11-20T09:57:52.896Z,97855.66
2022-11-20T10:00:22.309Z,97849.44
2022-11-20T10:02:57.689Z,97846.53
2022-11-20T10:05:30.152Z,97855.41
2022-11-20T10:08:11.023Z,97855.28
2022-11-20T10:10:46.489Z,97862.81
2022-11-20T10:13:36.592Z,97860.06
2022-11-20T10:16:18.869Z,97857.75
2022-11-20T10:19:01.351Z,97857.97
2022-11-20T10:21:36.960Z,97857.66
2022-11-20T10:24:32.117Z,97855.59
2022-11-20T10:27:11.449Z,97852.59
2022-11-20T10:29:45.874Z,97843.38
2022-11-20T10:32:18.503Z,97838.53
2022-11-20T10:34:51.115Z,97843.81
2022-11-20T10:37:23.586Z,97837.00
2022-11-20T10:39:58.853Z,97839.91
2022-11-20T10:42:33.813Z,97835.22
2022-11-20T10:45:17.886Z,97831.34
2022-11-20T10:47:46.489Z,97824.19
2022-11-20T10:50:22.603Z,97820.63
2022-11-20T10:52:58.267Z,97815.09
2022-11-20T10:55:32.634Z,97809.81
2022-11-20T10:58:10.691Z,97808.69
2022-11-20T11:00:40.080Z,97809.44
2022-11-20T11:03:22.867Z,97805.13
2022-11-20T11:05:57.079Z,97799.31
2022-11-20T11:08:31.102Z,97799.63
2022-11-20T11:11:01.145Z,97790.56
2022-11-20T11:13:30.768Z,97795.53
2022-11-20T11:16:00.131Z,97791.25
2022-11-20T11:18:30.933Z,97783.06
2022-11-20T11:21:01.360Z,97771.97
2022-11-20T11:23:34.603Z,97772.19
2022-11-20T11:26:04.804Z,97758.69
2022-11-20T11:28:33.020Z,97777.41
2022-11-20T11:31:02.357Z,97769.13
2022-11-20T11:33:32.317Z,97772.41
2022-11-20T11:36:02.733Z,97763.59
2022-11-20T11:38:35.293Z,97772.63
2022-11-20T11:41:04.327Z,97772.75
2022-11-20T11:43:52.642Z,97765.88
2022-11-20T11:46:39.991Z,97758.66
2022-11-20T11:49:18.538Z,97751.25
2022-11-20T11:52:07.263Z,97745.06
2022-11-20T11:54:42.090Z,97744.47
2022-11-20T11:57:21.879Z,97736.75
2022-11-20T12:00:03.806Z,97733.50
2022-11-20T12:02:41.288Z,97742.13
2022-11-20T12:05:21.084Z,97734.81
2022-11-20T12:07:52.000Z,97746.47
2022-11-20T12:10:24.418Z,97741.72
2022-11-20T12:12:56.992Z,97738.88
2022-11-20T12:15:32.548Z,97735.72
2022-11-20T12:18:02.300Z,97733.31
2022-11-20T12:20:38.424Z,97736.03
2022-11-20T12:23:16.508Z,97737.34
2022-11-20T12:25:46.479Z,97724.34
2022-11-20T12:28:34.769Z,97737.09
2022-11-20T12:31:19.393Z,97743.78
2022-11-20T12:34:00.709Z,97743.88
2022-11-20T12:36:37.787Z,97743.22
2022-11-20T12:39:35.834Z,97747.19
2022-11-20T12:43:03.216Z,97740.50
2022-11-20T12:45:47.901Z,97738.47
2022-11-20T12:48:43.650Z,97742.41
2022-11-20T12:51:34.106Z,97726.69
2022-11-20T12:54:23.234Z,97732.22
2022-11-20T12:57:03.987Z,97715.78
2022-11-20T12:59:50.776Z,97725.94
2022-11-20T13:02:28.126Z,97717.75
2022-11-20T13:05:08.532Z,97722.38
2022-11-20T13:07:38.456Z,97719.03
2022-11-20T13:10:16.145Z,97715.41
2022-11-20T13:12:50.485Z,97712.06
2022-11-20T13:15:28.971Z,97706.81
2022-11-20T13:18:00.916Z,97696.91
2022-11-20T13:20:30.147Z,97700.09
2022-11-20T13:22:59.902Z,97692.44
2022-11-20T13:25:30.213Z,97696.72
2022-11-20T13:28:00.166Z,97696.66
2022-11-20T13:30:29.125Z,97696.22
2022-11-20T13:33:00.870Z,97692.78
2022-11-20T13:35:32.244Z,97675.53
2022-11-20T13:38:08.589Z,97668.50
2022-11-20T13:40:39.076Z,97656.91
2022-11-20T13:43:18.120Z,97660.94
2022-11-20T13:45:57.783Z,97664.56
2022-11-20T13:48:28.701Z,97663.06
2022-11-20T13:51:17.532Z,97656.34
2022-11-20T13:54:09.628Z,97653.16
2022-11-20T13:56:49.960Z,97666.41
2022-11-20T13:59:34.076Z,97665.53
2022-11-20T14:02:03.385Z,97664.50
2022-11-20T14:04:35.133Z,97672.38
2022-11-20T14:07:03.761Z,97677.75
2022-11-20T14:09:35.154Z,97676.50
2022-11-20T14:12:04.991Z,97661.25
2022-11-20T14:14:37.413Z,97670.56
2022-11-20T14:17:09.594Z,97673.78
2022-11-20T14:19:39.872Z,97667.63
2022-11-20T14:22:18.829Z,97668.00
2022-11-20T14:24:48.832Z,97663.66
2022-11-20T14:27:18.757Z,97651.59
2022-11-20T14:29:49.343Z,97665.66
2022-11-20T14:32:19.222Z,97648.03
2022-11-20T14:34:50.009Z,97647.78
2022-11-20T14:37:22.736Z,97650.22
2022-11-20T14:39:54.131Z,97651.81
2022-11-20T14:42:24.835Z,97648.41
2022-11-20T14:44:54.676Z,97650.84
2022-11-20T14:47:27.084Z,97647.31
2022-11-20T14:49:57.062Z,97644.25
2022-11-20T14:52:27.886Z,97642.75
2022-11-20T14:55:00.553Z,97637.22
2022-11-20T14:57:30.667Z,97644.41
2022-11-20T15:00:20.960Z,97632.69
2022-11-20T15:02:50.642Z,97645.22
2022-11-20T15:05:19.885Z,97635.88
2022-11-20T15:07:50.219Z,97631.31
2022-11-20T15:10:25.271Z,97627.50
2022-11-20T15:12:55.337Z,97631.22
2022-11-20T15:15:29.683Z,97628.63
2022-11-20T15:17:57.736Z,97625.56
2022-11-20T15:20:29.704Z,97625.56
2022-11-20T15:22:57.642Z,97628.19
2022-11-20T15:25:27.391Z,97632.34
2022-11-20T15:27:57.989Z,97626.91
2022-11-20T15:30:26.423Z,97628.53
2022-11-20T15:32:54.371Z,97633.44
2022-11-20T15:35:22.375Z,97638.88
2022-11-20T15:37:50.531Z,97622.34
2022-11-20T15:40:18.533Z,97627.34
2022-11-20T15:43:01.701Z,97623.09
2022-11-20T15:45:31.836Z,97618.97
2022-11-20T15:48:00.040Z,97614.38
2022-11-20T15:50:34.128Z,97610.81
2022-11-20T15:53:02.093Z,97615.81
2022-11-20T15:55:30.020Z,97614.38
2022-11-20T15:57:59.324Z,97614.81
2022-11-20T16:00:28.819Z,97603.31
2022-11-20T16:02:58.483Z,97615.03
2022-11-20T16:05:29.700Z,97609.38
2022-11-20T16:07:57.843Z,97604.50
2022-11-20T16:10:25.858Z,97610.03
2022-11-20T16:13:11.189Z,97604.38
2022-11-20T16:15:49.212Z,97601.75
2022-11-20T16:18:19.966Z,97591.00
2022-11-20T16:20:49.623Z,97597.53
2022-11-20T16:23:17.674Z,97595.56
2022-11-20T16:25:46.013Z,97596.66
2022-11-20T16:28:18.615Z,97598.41
2022-11-20T16:30:50.275Z,97608.06
2022-11-20T16:33:19.509Z,97614.06
2022-11-20T16:35:47.506Z,97612.31
2022-11-20T16:38:15.447Z,97615.94
2022-11-20T16:40:43.444Z,97613.22
2022-11-20T16:43:13.334Z,97615.06
2022-11-20T16:45:45.570Z,97615.81
2022-11-20T16:48:16.690Z,97613.84
2022-11-20T16:50:50.118Z,97612.78
2022-11-20T16:53:18.923Z,97611.66
2022-11-20T16:55:47.008Z,97611.25
2022-11-20T16:58:15.304Z,97604.81
2022-11-20T17:00:48.336Z,97607.22
2022-11-20T17:03:21.158Z,97607.44
2022-11-20T17:05:49.138Z,97606.13
2022-11-20T17:08:17.199Z,97596.88
2022-11-20T17:10:45.125Z,97589.91
2022-11-20T17:13:13.072Z,97601.91
2022-11-20T17:15:41.020Z,97591.88
2022-11-20T17:18:08.949Z,97595.47
2022-11-20T17:20:38.164Z,97600.25
2022-11-20T17:23:06.117Z,97596.88
2022-11-20T17:25:34.839Z,97589.69
2022-11-20T17:28:02.773Z,97584.78
2022-11-20T17:30:31.502Z,97589.03
2022-11-20T17:32:59.406Z,97592.72
2022-11-20T17:35:27.420Z,97588.38
2022-11-20T17:37:56.751Z,97585.56
2022-11-20T17:40:27.544Z,97578.03
2022-11-20T17:42:56.239Z,97575.22
2022-11-20T17:45:24.166Z,97575.75
2022-11-20T17:47:52.208Z,97565.97
2022-11-20T17:50:20.110Z,97562.28
2022-11-20T17:52:47.995Z,97566.31
2022-11-20T17:55:17.317Z,97563.25
2022-11-20T17:57:53.299Z,97565.03
2022-11-20T18:00:22.371Z,97561.88
2022-11-20T18:02:50.364Z,97561.09
2022-11-20T18:05:18.509Z,97566.53
2022-11-20T18:07:46.432Z,97558.81
2022-11-20T18:10:14.413Z,97563.28
2022-11-20T18:12:44.014Z,97569.59
2022-11-20T18:15:11.922Z,97571.44
2022-11-20T18:17:39.816Z,97563.06
2022-11-20T18:22:57.504Z,97566.63
2022-11-20T18:25:25.491Z,97575.78
2022-11-20T18:27:54.803Z,97569.16
2022-11-20T18:30:23.003Z,97564.38
2022-11-20T18:32:51.114Z,97565.03
2022-11-20T18:35:19.121Z,97558.72
2022-11-20T18:37:47.057Z,97548.81
2022-11-20T18:40:15.410Z,97544.69
2022-11-20T18:43:00.894Z,97535.66
2022-11-20T18:45:30.471Z,97532.50
2022-11-20T18:47:58.436Z,97537.09
2022-11-20T18:50:26.388Z,97540.13
2022-11-20T18:52:54.449Z,97545.03
2022-11-20T18:55:25.151Z,97540.44
2022-11-20T18:57:54.071Z,97539.69
2022-11-20T19:00:22.296Z,97536.53
2022-11-20T19:02:54.587Z,97534.69
2022-11-20T19:05:22.979Z,97535.44
2022-11-20T19:07:51.037Z,97534.44
2022-11-20T19:10:20.422Z,97535.63
2022-11-20T19:12:48.769Z,97537.91
2022-11-20T19:15:16.710Z,97530.66
2022-11-20T19:17:44.703Z,97530.56
2022-11-20T19:20:14.141Z,97523.81
2022-11-20T19:22:42.198Z,97527.41
2022-11-20T19:25:10.587Z,97524.41
2022-11-20T19:27:38.663Z,97517.50
2022-11-20T19:30:07.896Z,97508.47
2022-11-20T19:32:36.341Z,97517.81
2022-11-20T19:35:04.793Z,97520.31
2022-11-20T19:37:35.619Z,97521.88
2022-11-20T19:40:04.765Z,97523.25
2022-11-20T19:42:33.254Z,97542.38
2022-11-20T19:45:01.178Z,97528.84
2022-11-20T19:47:52.812Z,97514.09
2022-11-20T19:50:17.370Z,97522.81
2022-11-20T19:52:46.622Z,97515.53
2022-11-20T19:55:14.547Z,97520.31
2022-11-20T19:57:42.533Z,97527.63
2022-11-20T20:00:12.447Z,97523.47
2022-11-20T20:02:40.450Z,97523.34
2022-11-20T20:05:08.929Z,97528.59
2022-11-20T20:07:36.925Z,97530.00
2022-11-20T20:10:07.267Z,97529.19
2022-11-20T20:12:35.321Z,97531.72
2022-11-20T20:15:03.246Z,97533.25
2022-11-20T20:17:31.227Z,97523.88
2022-11-20T20:19:59.147Z,97526.19
2022-11-20T20:22:27.178Z,97524.59
2022-11-20T20:24:55.089Z,97542.91
2022-11-20T20:27:24.470Z,97543.59
2022-11-20T20:29:52.407Z,97548.16
2022-11-20T20:32:20.316Z,97536.22
2022-11-20T20:34:48.200Z,97539.06
2022-11-20T20:37:16.086Z,97538.88
2022-11-20T20:39:45.201Z,97543.88
2022-11-20T20:42:13.093Z,97534.75
2022-11-20T20:44:59.609Z,97542.56
2022-11-20T20:47:31.815Z,97545.53
2022-11-20T20:49:59.892Z,97539.06
2022-11-20T20:52:28.189Z,97541.31
2022-11-20T20:54:56.745Z,97546.13
2022-11-20T20:57:25.310Z,97548.81
2022-11-20T20:59:55.506Z,97546.38
2022-11-20T21:02:23.996Z,97534.25
2022-11-20T21:04:52.370Z,97536.53
2022-11-20T21:07:20.610Z,97540.03
2022-11-20T21:09:48.567Z,97531.88
2022-11-20T21:12:16.485Z,97532.84
2022-11-20T21:14:44.405Z,97528.94
2022-11-20T21:17:15.533Z,97529.38
2022-11-20T21:19:43.565Z,97532.19
2022-11-20T21:22:10.458Z,97530.75
2022-11-20T21:24:38.450Z,97531.94
2022-11-20T21:27:07.451Z,97541.41
2022-11-20T21:29:35.387Z,97548.25
2022-11-20T21:32:03.301Z,97542.50
2022-11-20T21:34:36.992Z,97543.50
2022-11-20T21:37:08.171Z,97554.91
2022-11-20T21:39:50.617Z,97551.41
2022-11-20T21:42:18.814Z,97543.06
2022-11-20T21:44:47.387Z,97539.25
2022-11-20T21:47:15.405Z,97530.78
2022-11-20T21:49:44.762Z,97522.94
2022-11-20T21:52:13.721Z,97522.81
2022-11-20T21:54:41.685Z,97522.16
2022-11-20T21:57:09.592Z,97523.78
2022-11-20T21:59:37.594Z,97531.53
2022-11-20T22:02:05.630Z,97532.69
2022-11-20T22:04:33.558Z,97531.34
2022-11-20T22:07:02.979Z,97528.50
2022-11-20T22:09:30.994Z,97534.00
2022-11-20T22:11:58.935Z,97531.31
2022-11-20T22:14:26.164Z,97531.44
2022-11-20T22:16:54.980Z,97531.88
2022-11-20T22:19:24.283Z,97534.69
2022-11-20T22:21:52.525Z,97545.34
2022-11-20T22:24:23.599Z,97547.50
2022-11-20T22:26:52.301Z,97544.59
2022-11-20T22:29:21.916Z,97541.53
2022-11-20T22:31:52.891Z,97537.47
2022-11-20T22:34:21.136Z,97545.53
2022-11-20T22:36:49.542Z,97544.00
2022-11-20T22:39:17.659Z,97548.94
2022-11-20T22:41:47.005Z,97550.59
2022-11-20T22:44:16.523Z,97559.59
2022-11-20T22:46:44.550Z,97564.16
2022-11-20T22:49:12.434Z,97555.66
2022-11-20T22:51:41.639Z,97554.59
2022-11-20T22:54:12.305Z,97556.13
2022-11-20T22:56:40.844Z,97558.81
2022-11-20T22:59:10.230Z,97555.63
2022-11-20T23:01:38.837Z,97544.44
2022-11-20T23:04:10.504Z,97554.66
2022-11-20T23:06:38.853Z,97566.66
2022-11-20T23:09:08.256Z,97558.69
2022-11-20T23:11:36.837Z,97560.66
2022-11-20T23:14:06.429Z,97555.19
2022-11-20T23:16:36.290Z,97546.09
2022-11-20T23:19:07.479Z,97549.78
2022-11-20T23:21:36.631Z,97548.91
2022-11-20T23:24:05.237Z,97546.09
2022-11-20T23:26:35.559Z,97535.84
2022-11-20T23:29:04.380Z,97545.00
2022-11-20T23:31:33.855Z,97549.53
2022-11-20T23:34:03.331Z,97549.94
2022-11-20T23:36:31.786Z,97533.06
2022-11-20T23:38:59.723Z,97525.66
2022-11-20T23:41:27.928Z,97523.25
2022-11-20T23:43:55.852Z,97516.38
2022-11-20T23:46:23.776Z,97516.94
2022-11-20T23:48:51.713Z,97522.50
2022-11-20T23:51:21.003Z,97519.34
2022-11-20T23:53:48.973Z,97523.25
2022-11-20T23:56:16.948Z,97522.69
2022-11-20T23:58:44.915Z,97526.53
